sensor_id;sensor_type;location;lat;lon;timestamp;P1;durP1;ratioP1;P2;durP2;ratioP2
39502;SDS011;26970;49.900;10.774;2023-02-01T00:01:48;6.47;;;4.80;;
39502;SDS011;26970;49.900;10.774;2023-02-01T00:04:14;6.65;;;4.30;;
39502;SDS011;26970;49.900;10.774;2023-02-01T00:06:40;6.68;;;3.95;;
39502;SDS011;26970;49.900;10.774;2023-02-01T00:09:05;7.20;;;4.95;;
39502;SDS011;26970;49.900;10.774;2023-02-01T00:11:31;8.50;;;5.07;;
39502;SDS011;26970;49.900;10.774;2023-02-01T00:13:57;7.82;;;4.75;;
39502;SDS011;26970;49.900;10.774;2023-02-01T00:16:24;9.23;;;5.10;;
39502;SDS011;26970;49.900;10.774;2023-02-01T00:18:51;8.38;;;5.05;;
39502;SDS011;26970;49.900;10.774;2023-02-01T00:21:21;8.10;;;5.47;;
39502;SDS011;26970;49.900;10.774;2023-02-01T00:23:47;9.25;;;5.32;;
39502;SDS011;26970;49.900;10.774;2023-02-01T00:26:17;10.38;;;5.47;;
39502;SDS011;26970;49.900;10.774;2023-02-01T00:28:56;9.80;;;6.00;;
39502;SDS011;26970;49.900;10.774;2023-02-01T00:31:22;7.85;;;5.40;;
39502;SDS011;26970;49.900;10.774;2023-02-01T00:33:48;8.40;;;5.45;;
39502;SDS011;26970;49.900;10.774;2023-02-01T00:36:13;7.85;;;5.57;;
39502;SDS011;26970;49.900;10.774;2023-02-01T00:38:39;7.95;;;5.40;;
39502;SDS011;26970;49.900;10.774;2023-02-01T00:41:06;11.07;;;6.15;;
39502;SDS011;26970;49.900;10.774;2023-02-01T00:43:37;10.77;;;5.47;;
39502;SDS011;26970;49.900;10.774;2023-02-01T00:46:03;12.50;;;6.63;;
39502;SDS011;26970;49.900;10.774;2023-02-01T00:48:29;10.82;;;6.50;;
39502;SDS011;26970;49.900;10.774;2023-02-01T00:50:58;9.43;;;6.72;;
39502;SDS011;26970;49.900;10.774;2023-02-01T00:53:25;9.32;;;5.78;;
39502;SDS011;26970;49.900;10.774;2023-02-01T00:55:50;8.45;;;5.22;;
39502;SDS011;26970;49.900;10.774;2023-02-01T00:58:16;9.05;;;5.40;;
39502;SDS011;26970;49.900;10.774;2023-02-01T01:00:42;14.13;;;7.32;;
39502;SDS011;26970;49.900;10.774;2023-02-01T01:03:07;10.25;;;6.65;;
39502;SDS011;26970;49.900;10.774;2023-02-01T01:05:50;8.95;;;6.38;;
39502;SDS011;26970;49.900;10.774;2023-02-01T01:08:16;8.95;;;6.45;;
39502;SDS011;26970;49.900;10.774;2023-02-01T01:10:42;8.88;;;5.82;;
39502;SDS011;26970;49.900;10.774;2023-02-01T01:13:08;11.43;;;6.57;;
39502;SDS011;26970;49.900;10.774;2023-02-01T01:15:40;10.38;;;6.50;;
39502;SDS011;26970;49.900;10.774;2023-02-01T01:18:06;13.65;;;6.75;;
39502;SDS011;26970;49.900;10.774;2023-02-01T01:20:35;10.02;;;5.93;;
39502;SDS011;26970;49.900;10.774;2023-02-01T01:23:03;10.65;;;5.80;;
39502;SDS011;26970;49.900;10.774;2023-02-01T01:25:29;12.10;;;6.68;;
39502;SDS011;26970;49.900;10.774;2023-02-01T01:27:55;8.93;;;5.93;;
39502;SDS011;26970;49.900;10.774;2023-02-01T01:30:21;9.07;;;6.03;;
39502;SDS011;26970;49.900;10.774;2023-02-01T01:32:46;9.55;;;6.32;;
39502;SDS011;26970;49.900;10.774;2023-02-01T01:35:12;9.05;;;6.22;;
39502;SDS011;26970;49.900;10.774;2023-02-01T01:37:38;10.57;;;7.38;;
39502;SDS011;26970;49.900;10.774;2023-02-01T01:40:04;8.65;;;5.80;;
39502;SDS011;26970;49.900;10.774;2023-02-01T01:42:36;9.43;;;6.43;;
39502;SDS011;26970;49.900;10.774;2023-02-01T01:47:35;10.82;;;6.70;;
39502;SDS011;26970;49.900;10.774;2023-02-01T01:50:08;14.77;;;6.28;;
39502;SDS011;26970;49.900;10.774;2023-02-01T01:52:36;10.32;;;6.43;;
39502;SDS011;26970;49.900;10.774;2023-02-01T01:55:03;11.20;;;7.20;;
39502;SDS011;26970;49.900;10.774;2023-02-01T01:57:31;12.57;;;6.85;;
39502;SDS011;26970;49.900;10.774;2023-02-01T02:00:04;11.30;;;6.93;;
39502;SDS011;26970;49.900;10.774;2023-02-01T02:02:39;9.90;;;7.05;;
39502;SDS011;26970;49.900;10.774;2023-02-01T02:05:06;13.43;;;7.55;;
39502;SDS011;26970;49.900;10.774;2023-02-01T02:07:39;12.68;;;8.15;;
39502;SDS011;26970;49.900;10.774;2023-02-01T02:10:25;10.75;;;7.10;;
39502;SDS011;26970;49.900;10.774;2023-02-01T02:13:12;10.75;;;7.63;;
39502;SDS011;26970;49.900;10.774;2023-02-01T02:15:42;11.38;;;7.07;;
39502;SDS011;26970;49.900;10.774;2023-02-01T02:18:25;12.90;;;7.75;;
39502;SDS011;26970;49.900;10.774;2023-02-01T02:27:09;13.77;;;7.13;;
39502;SDS011;26970;49.900;10.774;2023-02-01T02:38:37;11.63;;;6.93;;
39502;SDS011;26970;49.900;10.774;2023-02-01T02:41:17;10.02;;;6.95;;
39502;SDS011;26970;49.900;10.774;2023-02-01T02:44:17;12.65;;;8.18;;
39502;SDS011;26970;49.900;10.774;2023-02-01T02:47:19;12.90;;;7.20;;
39502;SDS011;26970;49.900;10.774;2023-02-01T02:53:13;13.55;;;7.45;;
39502;SDS011;26970;49.900;10.774;2023-02-01T02:56:01;10.05;;;7.18;;
39502;SDS011;26970;49.900;10.774;2023-02-01T02:58:49;11.98;;;7.57;;
39502;SDS011;26970;49.900;10.774;2023-02-01T03:01:35;10.43;;;6.90;;
39502;SDS011;26970;49.900;10.774;2023-02-01T03:04:20;12.80;;;8.55;;
39502;SDS011;26970;49.900;10.774;2023-02-01T03:06:48;11.60;;;7.85;;
39502;SDS011;26970;49.900;10.774;2023-02-01T03:09:16;11.25;;;7.10;;
39502;SDS011;26970;49.900;10.774;2023-02-01T03:11:48;10.43;;;7.65;;
39502;SDS011;26970;49.900;10.774;2023-02-01T03:14:36;13.45;;;7.22;;
39502;SDS011;26970;49.900;10.774;2023-02-01T03:17:07;8.98;;;6.38;;
39502;SDS011;26970;49.900;10.774;2023-02-01T03:19:39;11.93;;;7.40;;
39502;SDS011;26970;49.900;10.774;2023-02-01T03:22:15;11.02;;;7.32;;
39502;SDS011;26970;49.900;10.774;2023-02-01T03:24:57;9.73;;;6.95;;
39502;SDS011;26970;49.900;10.774;2023-02-01T03:27:29;12.27;;;6.93;;
39502;SDS011;26970;49.900;10.774;2023-02-01T03:30:14;12.82;;;7.43;;
39502;SDS011;26970;49.900;10.774;2023-02-01T03:32:46;9.77;;;6.28;;
39502;SDS011;26970;49.900;10.774;2023-02-01T03:41:50;9.32;;;6.25;;
39502;SDS011;26970;49.900;10.774;2023-02-01T03:44:25;10.82;;;6.60;;
39502;SDS011;26970;49.900;10.774;2023-02-01T03:46:58;10.02;;;6.63;;
39502;SDS011;26970;49.900;10.774;2023-02-01T03:49:34;9.57;;;5.43;;
39502;SDS011;26970;49.900;10.774;2023-02-01T03:52:03;13.68;;;6.88;;
39502;SDS011;26970;49.900;10.774;2023-02-01T03:54:31;9.57;;;5.80;;
39502;SDS011;26970;49.900;10.774;2023-02-01T03:56:59;15.13;;;6.82;;
39502;SDS011;26970;49.900;10.774;2023-02-01T03:59:28;10.45;;;5.53;;
39502;SDS011;26970;49.900;10.774;2023-02-01T04:01:53;10.00;;;5.93;;
39502;SDS011;26970;49.900;10.774;2023-02-01T04:04:19;8.63;;;5.50;;
39502;SDS011;26970;49.900;10.774;2023-02-01T04:06:45;9.48;;;6.00;;
39502;SDS011;26970;49.900;10.774;2023-02-01T04:09:14;8.10;;;5.88;;
39502;SDS011;26970;49.900;10.774;2023-02-01T04:11:40;9.80;;;5.70;;
39502;SDS011;26970;49.900;10.774;2023-02-01T04:14:06;9.68;;;5.63;;
39502;SDS011;26970;49.900;10.774;2023-02-01T04:16:31;7.47;;;5.28;;
39502;SDS011;26970;49.900;10.774;2023-02-01T04:18:58;6.57;;;4.25;;
39502;SDS011;26970;49.900;10.774;2023-02-01T04:21:27;5.95;;;4.07;;
39502;SDS011;26970;49.900;10.774;2023-02-01T04:23:53;7.57;;;4.30;;
39502;SDS011;26970;49.900;10.774;2023-02-01T04:26:19;5.93;;;4.32;;
39502;SDS011;26970;49.900;10.774;2023-02-01T04:28:45;7.93;;;4.57;;
39502;SDS011;26970;49.900;10.774;2023-02-01T04:31:15;7.57;;;4.50;;
39502;SDS011;26970;49.900;10.774;2023-02-01T04:33:41;6.47;;;3.78;;
39502;SDS011;26970;49.900;10.774;2023-02-01T04:36:07;7.30;;;4.85;;
39502;SDS011;26970;49.900;10.774;2023-02-01T04:38:33;9.82;;;5.03;;
39502;SDS011;26970;49.900;10.774;2023-02-01T04:40:59;8.63;;;4.57;;
39502;SDS011;26970;49.900;10.774;2023-02-01T04:43:25;6.85;;;4.20;;
39502;SDS011;26970;49.900;10.774;2023-02-01T04:45:51;7.53;;;4.68;;
39502;SDS011;26970;49.900;10.774;2023-02-01T04:48:17;6.38;;;4.20;;
39502;SDS011;26970;49.900;10.774;2023-02-01T04:50:45;9.20;;;5.22;;
39502;SDS011;26970;49.900;10.774;2023-02-01T04:53:12;8.35;;;5.40;;
39502;SDS011;26970;49.900;10.774;2023-02-01T04:55:41;8.90;;;4.82;;
39502;SDS011;26970;49.900;10.774;2023-02-01T04:58:07;7.38;;;4.43;;
39502;SDS011;26970;49.900;10.774;2023-02-01T05:00:33;8.77;;;5.07;;
39502;SDS011;26970;49.900;10.774;2023-02-01T05:02:59;7.95;;;4.53;;
39502;SDS011;26970;49.900;10.774;2023-02-01T05:05:25;7.85;;;5.00;;
39502;SDS011;26970;49.900;10.774;2023-02-01T05:07:51;6.38;;;4.15;;
39502;SDS011;26970;49.900;10.774;2023-02-01T05:10:16;7.88;;;5.05;;
39502;SDS011;26970;49.900;10.774;2023-02-01T05:12:43;6.22;;;4.28;;
39502;SDS011;26970;49.900;10.774;2023-02-01T05:15:28;7.57;;;5.10;;
39502;SDS011;26970;49.900;10.774;2023-02-01T05:17:54;7.22;;;4.75;;
39502;SDS011;26970;49.900;10.774;2023-02-01T05:20:19;7.95;;;4.55;;
39502;SDS011;26970;49.900;10.774;2023-02-01T05:22:45;10.10;;;4.82;;
39502;SDS011;26970;49.900;10.774;2023-02-01T05:25:10;9.88;;;4.90;;
39502;SDS011;26970;49.900;10.774;2023-02-01T05:27:36;9.05;;;4.85;;
39502;SDS011;26970;49.900;10.774;2023-02-01T05:30:03;10.02;;;4.57;;
39502;SDS011;26970;49.900;10.774;2023-02-01T05:32:30;11.07;;;4.78;;
39502;SDS011;26970;49.900;10.774;2023-02-01T05:34:55;8.63;;;4.80;;
39502;SDS011;26970;49.900;10.774;2023-02-01T05:37:21;11.55;;;4.57;;
39502;SDS011;26970;49.900;10.774;2023-02-01T05:39:47;8.85;;;3.78;;
39502;SDS011;26970;49.900;10.774;2023-02-01T05:42:13;9.52;;;5.07;;
39502;SDS011;26970;49.900;10.774;2023-02-01T05:44:38;15.80;;;4.70;;
39502;SDS011;26970;49.900;10.774;2023-02-01T05:47:04;9.07;;;4.82;;
39502;SDS011;26970;49.900;10.774;2023-02-01T05:49:29;8.32;;;4.60;;
39502;SDS011;26970;49.900;10.774;2023-02-01T05:51:55;7.07;;;4.35;;
39502;SDS011;26970;49.900;10.774;2023-02-01T05:54:25;8.20;;;4.60;;
39502;SDS011;26970;49.900;10.774;2023-02-01T05:57:15;10.38;;;4.15;;
39502;SDS011;26970;49.900;10.774;2023-02-01T05:59:41;11.27;;;4.80;;
39502;SDS011;26970;49.900;10.774;2023-02-01T06:02:08;11.05;;;4.63;;
39502;SDS011;26970;49.900;10.774;2023-02-01T06:04:34;9.35;;;3.55;;
39502;SDS011;26970;49.900;10.774;2023-02-01T06:07:00;11.68;;;4.65;;
39502;SDS011;26970;49.900;10.774;2023-02-01T06:09:26;13.05;;;4.07;;
39502;SDS011;26970;49.900;10.774;2023-02-01T06:11:53;7.75;;;4.32;;
39502;SDS011;26970;49.900;10.774;2023-02-01T06:14:19;11.52;;;4.47;;
39502;SDS011;26970;49.900;10.774;2023-02-01T06:16:44;9.57;;;3.67;;
39502;SDS011;26970;49.900;10.774;2023-02-01T06:19:11;14.52;;;4.10;;
39502;SDS011;26970;49.900;10.774;2023-02-01T06:21:37;13.77;;;3.70;;
39502;SDS011;26970;49.900;10.774;2023-02-01T06:24:03;14.50;;;3.92;;
39502;SDS011;26970;49.900;10.774;2023-02-01T06:26:29;8.10;;;3.63;;
39502;SDS011;26970;49.900;10.774;2023-02-01T06:28:54;33.75;;;11.68;;
39502;SDS011;26970;49.900;10.774;2023-02-01T06:31:20;17.48;;;6.80;;
39502;SDS011;26970;49.900;10.774;2023-02-01T06:33:46;9.82;;;3.78;;
39502;SDS011;26970;49.900;10.774;2023-02-01T06:36:12;16.13;;;4.45;;
39502;SDS011;26970;49.900;10.774;2023-02-01T06:38:38;11.57;;;6.35;;
39502;SDS011;26970;49.900;10.774;2023-02-01T06:41:04;7.88;;;4.30;;
39502;SDS011;26970;49.900;10.774;2023-02-01T06:43:30;8.77;;;3.70;;
39502;SDS011;26970;49.900;10.774;2023-02-01T06:46:07;12.68;;;4.97;;
39502;SDS011;26970;49.900;10.774;2023-02-01T06:48:35;10.52;;;3.78;;
39502;SDS011;26970;49.900;10.774;2023-02-01T06:51:00;13.25;;;5.55;;
39502;SDS011;26970;49.900;10.774;2023-02-01T06:53:26;10.15;;;3.92;;
39502;SDS011;26970;49.900;10.774;2023-02-01T06:55:53;9.27;;;4.10;;
39502;SDS011;26970;49.900;10.774;2023-02-01T06:58:19;13.20;;;3.55;;
39502;SDS011;26970;49.900;10.774;2023-02-01T07:00:45;11.27;;;3.60;;
39502;SDS011;26970;49.900;10.774;2023-02-01T07:03:11;9.18;;;2.80;;
39502;SDS011;26970;49.900;10.774;2023-02-01T07:05:37;7.30;;;2.92;;
39502;SDS011;26970;49.900;10.774;2023-02-01T07:08:02;5.28;;;3.15;;
39502;SDS011;26970;49.900;10.774;2023-02-01T07:10:28;7.78;;;3.90;;
39502;SDS011;26970;49.900;10.774;2023-02-01T07:12:56;9.18;;;3.33;;
39502;SDS011;26970;49.900;10.774;2023-02-01T07:15:24;10.80;;;3.83;;
39502;SDS011;26970;49.900;10.774;2023-02-01T07:17:50;5.47;;;2.80;;
39502;SDS011;26970;49.900;10.774;2023-02-01T07:20:16;7.25;;;2.95;;
39502;SDS011;26970;49.900;10.774;2023-02-01T07:22:41;7.82;;;2.78;;
39502;SDS011;26970;49.900;10.774;2023-02-01T07:25:07;9.93;;;2.90;;
39502;SDS011;26970;49.900;10.774;2023-02-01T07:27:34;7.32;;;3.40;;
39502;SDS011;26970;49.900;10.774;2023-02-01T07:29:59;8.50;;;2.88;;
39502;SDS011;26970;49.900;10.774;2023-02-01T07:32:27;6.90;;;3.17;;
39502;SDS011;26970;49.900;10.774;2023-02-01T07:34:53;6.20;;;3.28;;
39502;SDS011;26970;49.900;10.774;2023-02-01T07:37:19;6.72;;;2.65;;
39502;SDS011;26970;49.900;10.774;2023-02-01T07:39:44;7.93;;;2.70;;
39502;SDS011;26970;49.900;10.774;2023-02-01T07:42:10;5.35;;;2.72;;
39502;SDS011;26970;49.900;10.774;2023-02-01T07:44:36;11.43;;;3.50;;
39502;SDS011;26970;49.900;10.774;2023-02-01T07:47:01;4.55;;;2.85;;
39502;SDS011;26970;49.900;10.774;2023-02-01T07:49:27;10.00;;;3.30;;
39502;SDS011;26970;49.900;10.774;2023-02-01T07:51:53;6.97;;;3.60;;
39502;SDS011;26970;49.900;10.774;2023-02-01T07:54:18;15.27;;;3.25;;
39502;SDS011;26970;49.900;10.774;2023-02-01T07:56:44;9.68;;;3.22;;
39502;SDS011;26970;49.900;10.774;2023-02-01T07:59:09;5.82;;;2.80;;
39502;SDS011;26970;49.900;10.774;2023-02-01T08:01:36;8.13;;;2.92;;
39502;SDS011;26970;49.900;10.774;2023-02-01T08:04:03;6.65;;;3.20;;
39502;SDS011;26970;49.900;10.774;2023-02-01T08:06:29;14.98;;;4.38;;
39502;SDS011;26970;49.900;10.774;2023-02-01T08:08:56;12.20;;;2.85;;
39502;SDS011;26970;49.900;10.774;2023-02-01T08:11:24;10.80;;;2.45;;
39502;SDS011;26970;49.900;10.774;2023-02-01T08:13:51;5.03;;;2.80;;
39502;SDS011;26970;49.900;10.774;2023-02-01T08:16:22;10.50;;;2.55;;
39502;SDS011;26970;49.900;10.774;2023-02-01T08:19:05;11.18;;;3.53;;
39502;SDS011;26970;49.900;10.774;2023-02-01T08:21:34;6.03;;;3.28;;
39502;SDS011;26970;49.900;10.774;2023-02-01T08:24:03;8.20;;;3.00;;
39502;SDS011;26970;49.900;10.774;2023-02-01T08:26:30;11.60;;;3.00;;
39502;SDS011;26970;49.900;10.774;2023-02-01T08:28:57;13.00;;;3.35;;
39502;SDS011;26970;49.900;10.774;2023-02-01T08:31:25;10.30;;;2.55;;
39502;SDS011;26970;49.900;10.774;2023-02-01T08:33:56;6.75;;;2.45;;
39502;SDS011;26970;49.900;10.774;2023-02-01T08:36:24;7.22;;;3.13;;
39502;SDS011;26970;49.900;10.774;2023-02-01T08:38:52;8.23;;;3.75;;
39502;SDS011;26970;49.900;10.774;2023-02-01T08:41:18;7.28;;;2.90;;
39502;SDS011;26970;49.900;10.774;2023-02-01T08:43:46;8.85;;;2.92;;
39502;SDS011;26970;49.900;10.774;2023-02-01T08:46:12;8.43;;;2.60;;
39502;SDS011;26970;49.900;10.774;2023-02-01T08:48:38;10.50;;;3.42;;
39502;SDS011;26970;49.900;10.774;2023-02-01T08:51:05;14.75;;;3.70;;
39502;SDS011;26970;49.900;10.774;2023-02-01T08:53:33;10.60;;;3.53;;
39502;SDS011;26970;49.900;10.774;2023-02-01T08:56:00;8.82;;;3.30;;
39502;SDS011;26970;49.900;10.774;2023-02-01T08:58:26;11.98;;;3.20;;
39502;SDS011;26970;49.900;10.774;2023-02-01T09:00:52;5.15;;;2.70;;
39502;SDS011;26970;49.900;10.774;2023-02-01T09:03:18;12.48;;;3.58;;
39502;SDS011;26970;49.900;10.774;2023-02-01T09:05:43;13.95;;;3.60;;
39502;SDS011;26970;49.900;10.774;2023-02-01T09:08:10;9.32;;;3.55;;
39502;SDS011;26970;49.900;10.774;2023-02-01T09:10:39;10.07;;;2.42;;
39502;SDS011;26970;49.900;10.774;2023-02-01T09:13:06;9.13;;;2.95;;
39502;SDS011;26970;49.900;10.774;2023-02-01T09:15:32;14.80;;;3.30;;
39502;SDS011;26970;49.900;10.774;2023-02-01T09:17:58;13.20;;;3.92;;
39502;SDS011;26970;49.900;10.774;2023-02-01T09:20:24;8.50;;;3.13;;
39502;SDS011;26970;49.900;10.774;2023-02-01T09:22:52;11.13;;;3.10;;
39502;SDS011;26970;49.900;10.774;2023-02-01T09:25:21;8.52;;;3.17;;
39502;SDS011;26970;49.900;10.774;2023-02-01T09:27:46;7.60;;;2.80;;
39502;SDS011;26970;49.900;10.774;2023-02-01T09:30:12;12.23;;;3.70;;
39502;SDS011;26970;49.900;10.774;2023-02-01T09:32:38;9.13;;;2.85;;
39502;SDS011;26970;49.900;10.774;2023-02-01T09:35:08;9.93;;;3.08;;
39502;SDS011;26970;49.900;10.774;2023-02-01T09:37:55;12.10;;;3.25;;
39502;SDS011;26970;49.900;10.774;2023-02-01T09:40:26;5.03;;;2.20;;
39502;SDS011;26970;49.900;10.774;2023-02-01T09:45:29;9.65;;;3.72;;
39502;SDS011;26970;49.900;10.774;2023-02-01T09:48:41;7.10;;;2.90;;
39502;SDS011;26970;49.900;10.774;2023-02-01T09:51:18;6.82;;;3.47;;
39502;SDS011;26970;49.900;10.774;2023-02-01T09:56:44;8.02;;;3.42;;
39502;SDS011;26970;49.900;10.774;2023-02-01T09:59:42;9.85;;;1.83;;
39502;SDS011;26970;49.900;10.774;2023-02-01T10:02:24;9.23;;;2.88;;
39502;SDS011;26970;49.900;10.774;2023-02-01T10:04:53;11.00;;;3.15;;
39502;SDS011;26970;49.900;10.774;2023-02-01T10:10:01;8.23;;;3.38;;
39502;SDS011;26970;49.900;10.774;2023-02-01T10:12:48;5.30;;;2.50;;
39502;SDS011;26970;49.900;10.774;2023-02-01T10:20:56;17.08;;;4.30;;
39502;SDS011;26970;49.900;10.774;2023-02-01T10:28:59;9.75;;;3.10;;
39502;SDS011;26970;49.900;10.774;2023-02-01T10:31:31;11.70;;;3.33;;
39502;SDS011;26970;49.900;10.774;2023-02-01T10:34:06;12.73;;;4.50;;
39502;SDS011;26970;49.900;10.774;2023-02-01T10:36:42;12.55;;;3.60;;
39502;SDS011;26970;49.900;10.774;2023-02-01T10:39:17;13.02;;;3.15;;
39502;SDS011;26970;49.900;10.774;2023-02-01T10:41:43;16.48;;;3.88;;
39502;SDS011;26970;49.900;10.774;2023-02-01T10:44:11;17.15;;;4.72;;
39502;SDS011;26970;49.900;10.774;2023-02-01T10:46:40;7.57;;;2.95;;
39502;SDS011;26970;49.900;10.774;2023-02-01T10:49:08;10.75;;;4.20;;
39502;SDS011;26970;49.900;10.774;2023-02-01T10:51:43;15.07;;;4.55;;
39502;SDS011;26970;49.900;10.774;2023-02-01T10:54:18;15.75;;;4.75;;
39502;SDS011;26970;49.900;10.774;2023-02-01T10:56:57;9.15;;;3.05;;
39502;SDS011;26970;49.900;10.774;2023-02-01T10:59:27;11.68;;;3.13;;
39502;SDS011;26970;49.900;10.774;2023-02-01T11:02:01;6.05;;;3.47;;
39502;SDS011;26970;49.900;10.774;2023-02-01T11:04:39;9.80;;;3.30;;
39502;SDS011;26970;49.900;10.774;2023-02-01T11:09:52;8.45;;;3.20;;
39502;SDS011;26970;49.900;10.774;2023-02-01T11:15:22;12.35;;;3.25;;
39502;SDS011;26970;49.900;10.774;2023-02-01T11:17:51;12.10;;;3.53;;
39502;SDS011;26970;49.900;10.774;2023-02-01T11:22:57;11.73;;;3.03;;
39502;SDS011;26970;49.900;10.774;2023-02-01T11:25:23;19.02;;;3.42;;
39502;SDS011;26970;49.900;10.774;2023-02-01T11:27:55;8.07;;;3.05;;
39502;SDS011;26970;49.900;10.774;2023-02-01T11:30:48;7.47;;;2.53;;
39502;SDS011;26970;49.900;10.774;2023-02-01T11:33:32;8.30;;;2.63;;
39502;SDS011;26970;49.900;10.774;2023-02-01T11:36:28;5.78;;;2.55;;
39502;SDS011;26970;49.900;10.774;2023-02-01T11:41:54;8.88;;;2.72;;
39502;SDS011;26970;49.900;10.774;2023-02-01T11:44:45;9.73;;;2.83;;
39502;SDS011;26970;49.900;10.774;2023-02-01T11:48:00;8.68;;;2.03;;
39502;SDS011;26970;49.900;10.774;2023-02-01T11:51:16;8.90;;;2.70;;
39502;SDS011;26970;49.900;10.774;2023-02-01T11:54:26;14.07;;;3.42;;
39502;SDS011;26970;49.900;10.774;2023-02-01T12:02:52;14.63;;;3.00;;
39502;SDS011;26970;49.900;10.774;2023-02-01T12:08:46;7.05;;;2.72;;
39502;SDS011;26970;49.900;10.774;2023-02-01T12:33:32;9.20;;;3.00;;
39502;SDS011;26970;49.900;10.774;2023-02-01T12:41:07;10.85;;;2.28;;
39502;SDS011;26970;49.900;10.774;2023-02-01T12:46:37;6.05;;;2.10;;
39502;SDS011;26970;49.900;10.774;2023-02-01T12:51:43;10.65;;;2.67;;
39502;SDS011;26970;49.900;10.774;2023-02-01T12:57:05;11.82;;;3.28;;
39502;SDS011;26970;49.900;10.774;2023-02-01T12:59:59;4.45;;;2.00;;
39502;SDS011;26970;49.900;10.774;2023-02-01T13:02:42;7.13;;;2.38;;
39502;SDS011;26970;49.900;10.774;2023-02-01T13:05:21;9.48;;;3.28;;
39502;SDS011;26970;49.900;10.774;2023-02-01T13:10:40;10.00;;;2.47;;
39502;SDS011;26970;49.900;10.774;2023-02-01T13:15:41;6.30;;;2.13;;
39502;SDS011;26970;49.900;10.774;2023-02-01T13:18:14;7.35;;;1.98;;
39502;SDS011;26970;49.900;10.774;2023-02-01T13:23:28;9.07;;;2.65;;
39502;SDS011;26970;49.900;10.774;2023-02-01T13:25:56;9.15;;;2.35;;
39502;SDS011;26970;49.900;10.774;2023-02-01T13:36:59;6.47;;;2.08;;
39502;SDS011;26970;49.900;10.774;2023-02-01T13:42:47;7.15;;;2.50;;
39502;SDS011;26970;49.900;10.774;2023-02-01T13:45:20;6.25;;;2.08;;
39502;SDS011;26970;49.900;10.774;2023-02-01T13:47:54;13.63;;;2.20;;
39502;SDS011;26970;49.900;10.774;2023-02-01T13:50:30;9.75;;;2.35;;
39502;SDS011;26970;49.900;10.774;2023-02-01T13:53:14;7.90;;;2.58;;
39502;SDS011;26970;49.900;10.774;2023-02-01T13:55:44;5.35;;;1.88;;
39502;SDS011;26970;49.900;10.774;2023-02-01T14:00:50;8.05;;;2.13;;
39502;SDS011;26970;49.900;10.774;2023-02-01T14:03:46;11.77;;;2.92;;
39502;SDS011;26970;49.900;10.774;2023-02-01T14:16:40;15.25;;;6.55;;
39502;SDS011;26970;49.900;10.774;2023-02-01T14:19:29;13.25;;;2.85;;
39502;SDS011;26970;49.900;10.774;2023-02-01T14:21:59;8.20;;;2.40;;
39502;SDS011;26970;49.900;10.774;2023-02-01T14:24:48;7.30;;;2.28;;
39502;SDS011;26970;49.900;10.774;2023-02-01T14:27:18;9.65;;;2.13;;
39502;SDS011;26970;49.900;10.774;2023-02-01T14:30:00;8.23;;;2.80;;
39502;SDS011;26970;49.900;10.774;2023-02-01T14:32:31;6.38;;;2.30;;
39502;SDS011;26970;49.900;10.774;2023-02-01T14:35:00;5.65;;;2.25;;
39502;SDS011;26970;49.900;10.774;2023-02-01T14:37:31;6.03;;;2.22;;
39502;SDS011;26970;49.900;10.774;2023-02-01T14:40:05;10.02;;;2.45;;
39502;SDS011;26970;49.900;10.774;2023-02-01T14:53:04;14.93;;;3.95;;
39502;SDS011;26970;49.900;10.774;2023-02-01T15:06:25;15.90;;;3.70;;
39502;SDS011;26970;49.900;10.774;2023-02-01T15:09:09;9.65;;;3.03;;
39502;SDS011;26970;49.900;10.774;2023-02-01T15:14:22;9.45;;;2.22;;
39502;SDS011;26970;49.900;10.774;2023-02-01T15:16:48;6.28;;;2.30;;
39502;SDS011;26970;49.900;10.774;2023-02-01T15:19:21;7.37;;;2.10;;
39502;SDS011;26970;49.900;10.774;2023-02-01T15:21:49;5.57;;;2.42;;
39502;SDS011;26970;49.900;10.774;2023-02-01T15:26:50;9.25;;;3.45;;
39502;SDS011;26970;49.900;10.774;2023-02-01T15:29:18;6.65;;;2.83;;
39502;SDS011;26970;49.900;10.774;2023-02-01T15:31:46;12.38;;;2.97;;
39502;SDS011;26970;49.900;10.774;2023-02-01T15:34:14;5.40;;;2.35;;
39502;SDS011;26970;49.900;10.774;2023-02-01T15:36:40;5.53;;;2.78;;
39502;SDS011;26970;49.900;10.774;2023-02-01T15:42:09;11.30;;;2.70;;
39502;SDS011;26970;49.900;10.774;2023-02-01T15:44:40;7.15;;;2.33;;
39502;SDS011;26970;49.900;10.774;2023-02-01T15:47:17;14.30;;;2.75;;
39502;SDS011;26970;49.900;10.774;2023-02-01T15:49:50;9.63;;;2.40;;
39502;SDS011;26970;49.900;10.774;2023-02-01T15:54:54;7.28;;;2.42;;
39502;SDS011;26970;49.900;10.774;2023-02-01T15:57:26;9.63;;;2.72;;
39502;SDS011;26970;49.900;10.774;2023-02-01T16:00:08;8.75;;;2.85;;
39502;SDS011;26970;49.900;10.774;2023-02-01T16:02:52;7.97;;;2.55;;
39502;SDS011;26970;49.900;10.774;2023-02-01T16:05:32;6.20;;;2.40;;
39502;SDS011;26970;49.900;10.774;2023-02-01T16:10:42;6.53;;;3.05;;
39502;SDS011;26970;49.900;10.774;2023-02-01T16:13:16;6.78;;;1.98;;
39502;SDS011;26970;49.900;10.774;2023-02-01T16:16:01;9.80;;;3.17;;
39502;SDS011;26970;49.900;10.774;2023-02-01T16:18:29;6.35;;;2.38;;
39502;SDS011;26970;49.900;10.774;2023-02-01T16:21:03;10.48;;;3.15;;
39502;SDS011;26970;49.900;10.774;2023-02-01T16:23:29;15.43;;;2.95;;
39502;SDS011;26970;49.900;10.774;2023-02-01T16:25:54;6.55;;;2.42;;
39502;SDS011;26970;49.900;10.774;2023-02-01T16:28:22;9.77;;;2.90;;
39502;SDS011;26970;49.900;10.774;2023-02-01T16:31:03;9.13;;;2.65;;
39502;SDS011;26970;49.900;10.774;2023-02-01T16:33:28;10.68;;;2.70;;
39502;SDS011;26970;49.900;10.774;2023-02-01T16:35:55;6.00;;;2.45;;
39502;SDS011;26970;49.900;10.774;2023-02-01T16:38:25;11.40;;;3.25;;
39502;SDS011;26970;49.900;10.774;2023-02-01T16:40:51;10.55;;;2.25;;
39502;SDS011;26970;49.900;10.774;2023-02-01T16:43:27;7.70;;;2.50;;
39502;SDS011;26970;49.900;10.774;2023-02-01T16:46:15;9.32;;;2.97;;
39502;SDS011;26970;49.900;10.774;2023-02-01T16:48:46;7.95;;;2.83;;
39502;SDS011;26970;49.900;10.774;2023-02-01T16:51:16;12.50;;;2.78;;
39502;SDS011;26970;49.900;10.774;2023-02-01T16:53:43;9.68;;;3.10;;
39502;SDS011;26970;49.900;10.774;2023-02-01T16:56:12;12.13;;;2.65;;
39502;SDS011;26970;49.900;10.774;2023-02-01T16:58:42;11.73;;;3.10;;
39502;SDS011;26970;49.900;10.774;2023-02-01T17:01:09;7.78;;;2.30;;
39502;SDS011;26970;49.900;10.774;2023-02-01T17:03:36;11.23;;;3.03;;
39502;SDS011;26970;49.900;10.774;2023-02-01T17:06:02;12.63;;;2.40;;
39502;SDS011;26970;49.900;10.774;2023-02-01T17:08:29;9.15;;;1.67;;
39502;SDS011;26970;49.900;10.774;2023-02-01T17:10:58;7.60;;;3.08;;
39502;SDS011;26970;49.900;10.774;2023-02-01T17:13:23;8.93;;;2.30;;
39502;SDS011;26970;49.900;10.774;2023-02-01T17:15:51;8.23;;;2.63;;
39502;SDS011;26970;49.900;10.774;2023-02-01T17:18:22;9.75;;;2.17;;
39502;SDS011;26970;49.900;10.774;2023-02-01T17:20:50;7.43;;;2.53;;
39502;SDS011;26970;49.900;10.774;2023-02-01T17:23:17;6.18;;;2.25;;
39502;SDS011;26970;49.900;10.774;2023-02-01T17:25:43;10.75;;;2.88;;
39502;SDS011;26970;49.900;10.774;2023-02-01T17:28:11;3.17;;;1.40;;
39502;SDS011;26970;49.900;10.774;2023-02-01T17:30:47;2.83;;;1.30;;
39502;SDS011;26970;49.900;10.774;2023-02-01T17:33:20;10.90;;;2.60;;
39502;SDS011;26970;49.900;10.774;2023-02-01T17:35:55;14.23;;;2.50;;
39502;SDS011;26970;49.900;10.774;2023-02-01T17:38:21;13.50;;;3.45;;
39502;SDS011;26970;49.900;10.774;2023-02-01T17:40:47;6.88;;;2.38;;